createdAt,value
2023-04-22T00:04:21.830Z,9.50
2023-04-22T00:09:17.036Z,9.40
2023-04-22T00:14:10.483Z,9.40
2023-04-22T00:19:03.999Z,9.40
2023-04-22T00:23:57.518Z,9.40
2023-04-22T00:28:52.334Z,9.30
2023-04-22T00:33:45.721Z,9.20
2023-04-22T00:38:40.783Z,9.10
2023-04-22T00:43:34.179Z,9.00
2023-04-22T00:48:30.785Z,9.00
2023-04-22T00:53:24.169Z,9.00
2023-04-22T00:58:20.196Z,9.00
2023-04-22T01:03:14.632Z,9.10
2023-04-22T01:08:09.519Z,8.90
2023-04-22T01:13:02.931Z,8.80
2023-04-22T01:17:57.536Z,8.90
2023-04-22T01:22:56.476Z,8.90
2023-04-22T01:27:51.715Z,8.80
2023-04-22T01:32:46.036Z,8.60
2023-04-22T01:37:40.351Z,8.60
2023-04-22T01:42:34.447Z,8.50
2023-04-22T01:47:29.119Z,8.50
2023-04-22T01:52:22.957Z,8.40
2023-04-22T01:57:16.531Z,8.40
2023-04-22T02:02:10.175Z,8.50
2023-04-22T02:07:04.957Z,8.30
2023-04-22T02:11:58.233Z,8.30
2023-04-22T02:16:51.874Z,8.30
2023-04-22T02:21:45.434Z,8.40
2023-04-22T02:26:40.115Z,8.30
2023-04-22T02:31:33.567Z,8.20
2023-04-22T02:36:27.761Z,8.20
2023-04-22T02:41:21.142Z,8.00
2023-04-22T02:46:17.173Z,7.90
2023-04-22T02:51:10.542Z,7.90
2023-04-22T02:56:04.013Z,8.10
2023-04-22T03:00:58.167Z,8.10
2023-04-22T03:05:53.060Z,8.10
2023-04-22T03:10:46.367Z,8.00
2023-04-22T03:15:41.647Z,7.90
2023-04-22T03:20:35.508Z,7.90
2023-04-22T03:25:30.203Z,7.80
2023-04-22T03:30:24.026Z,7.70
2023-04-22T03:35:17.552Z,7.70
2023-04-22T03:40:13.681Z,7.80
2023-04-22T03:45:09.769Z,7.70
2023-04-22T03:50:03.201Z,7.70
2023-04-22T03:54:56.516Z,7.60
2023-04-22T03:59:52.015Z,7.60
2023-04-22T04:04:47.293Z,7.50
2023-04-22T04:09:41.407Z,7.20
2023-04-22T04:14:35.075Z,7.30
2023-04-22T04:19:28.460Z,7.30
2023-04-22T04:24:23.147Z,7.20
2023-04-22T04:29:16.590Z,7.20
2023-04-22T04:34:09.876Z,7.30
2023-04-22T04:39:04.237Z,7.40
2023-04-22T04:44:00.511Z,7.40
2023-04-22T04:48:54.070Z,7.40
2023-04-22T04:53:47.407Z,7.40
2023-04-22T04:58:40.876Z,7.30
2023-04-22T05:03:36.017Z,7.30
2023-04-22T05:08:29.353Z,7.30
2023-04-22T05:13:22.762Z,7.40
2023-04-22T05:18:16.090Z,7.60
2023-04-22T05:23:10.766Z,7.60
2023-04-22T05:28:04.047Z,7.70
2023-04-22T05:33:08.784Z,7.80
2023-04-22T05:38:03.071Z,8.00
2023-04-22T05:42:58.689Z,8.00
2023-04-22T05:47:52.115Z,8.10
2023-04-22T05:52:45.503Z,8.30
2023-04-22T05:57:39.031Z,8.50
2023-04-22T06:02:33.794Z,8.60
2023-04-22T06:07:27.336Z,8.70
2023-04-22T06:12:21.132Z,8.70
2023-04-22T06:17:14.525Z,8.80
2023-04-22T06:22:09.289Z,9.00
2023-04-22T06:27:03.112Z,9.00
2023-04-22T06:31:56.941Z,9.10
2023-04-22T06:36:51.267Z,9.20
2023-04-22T06:41:45.960Z,9.10
2023-04-22T06:46:42.312Z,9.20
2023-04-22T06:51:35.843Z,9.40
2023-04-22T06:56:29.266Z,9.50
2023-04-22T07:01:24.030Z,9.70
2023-04-22T07:06:17.645Z,9.80
2023-04-22T07:11:14.886Z,9.80
2023-04-22T07:16:08.417Z,9.70
2023-04-22T07:21:03.392Z,9.80
2023-04-22T07:25:56.857Z,10.00
2023-04-22T07:30:55.350Z,10.20
2023-04-22T07:35:49.200Z,10.30
2023-04-22T07:40:43.884Z,10.40
2023-04-22T07:45:37.254Z,10.60
2023-04-22T07:50:30.786Z,10.70
2023-04-22T07:55:24.069Z,10.80
2023-04-22T08:00:19.317Z,11.10
2023-04-22T08:05:12.808Z,11.50
2023-04-22T08:10:08.432Z,11.80
2023-04-22T08:15:01.802Z,12.00
2023-04-22T08:19:56.526Z,12.30
2023-04-22T08:24:49.883Z,12.30
2023-04-22T08:29:43.458Z,12.50
2023-04-22T08:34:37.336Z,12.80
2023-04-22T08:39:32.230Z,13.10
2023-04-22T08:44:26.930Z,13.20
2023-04-22T08:49:22.314Z,13.40
2023-04-22T08:54:16.310Z,13.30
2023-04-22T08:59:12.375Z,13.30
2023-04-22T09:04:07.576Z,13.30
2023-04-22T09:09:01.935Z,13.40
2023-04-22T09:13:56.058Z,13.60
2023-04-22T09:18:52.076Z,13.80
2023-04-22T09:23:49.444Z,14.00
2023-04-22T09:28:51.943Z,14.20
2023-04-22T09:33:51.860Z,14.60
2023-04-22T09:38:55.355Z,14.90
2023-04-22T09:43:48.824Z,15.00
2023-04-22T09:48:45.419Z,15.20
2023-04-22T09:53:40.152Z,15.30
2023-04-22T09:58:33.491Z,15.40
2023-04-22T10:03:26.887Z,15.70
2023-04-22T10:08:20.192Z,15.90
2023-04-22T10:13:15.029Z,16.10
2023-04-22T10:18:13.861Z,16.20
2023-04-22T10:23:14.538Z,16.30
2023-04-22T10:28:10.561Z,16.50
2023-04-22T10:33:40.127Z,16.50
2023-04-22T10:38:36.225Z,16.40
2023-04-22T10:43:43.615Z,16.50
2023-04-22T10:48:51.261Z,16.70
2023-04-22T10:53:46.112Z,16.70
2023-04-22T10:58:39.748Z,16.80
2023-04-22T11:03:33.390Z,16.90
2023-04-22T11:08:29.912Z,16.90
2023-04-22T11:13:23.911Z,17.00
2023-04-22T11:18:21.953Z,17.00
2023-04-22T11:23:21.039Z,17.20
2023-04-22T11:28:15.751Z,17.30
2023-04-22T11:33:09.312Z,17.50
2023-04-22T11:38:04.581Z,17.60
2023-04-22T11:42:59.255Z,17.80
2023-04-22T11:47:55.396Z,17.90
2023-04-22T11:52:52.611Z,17.90
2023-04-22T11:57:53.764Z,18.10
2023-04-22T12:03:00.618Z,18.20
2023-04-22T12:07:54.188Z,18.20
2023-04-22T12:12:47.504Z,18.40
2023-04-22T12:17:41.219Z,18.50
2023-04-22T12:22:36.028Z,18.60
2023-04-22T12:27:29.529Z,18.50
2023-04-22T12:32:24.962Z,18.60
2023-04-22T12:37:19.656Z,18.40
2023-04-22T12:42:14.446Z,18.30
2023-04-22T12:47:09.825Z,18.20
2023-04-22T12:52:03.163Z,18.30
2023-04-22T12:56:57.900Z,18.30
2023-04-22T13:01:52.794Z,18.20
2023-04-22T13:06:46.230Z,18.30
2023-04-22T13:11:39.648Z,18.50
2023-04-22T13:16:32.993Z,18.70
2023-04-22T13:21:28.393Z,18.70
2023-04-22T13:26:22.471Z,18.70
2023-04-22T13:31:15.832Z,18.60
2023-04-22T13:36:11.173Z,18.60
2023-04-22T13:41:06.188Z,18.70
2023-04-22T13:45:59.668Z,18.80
2023-04-22T13:50:52.893Z,18.90
2023-04-22T13:55:46.269Z,18.90
2023-04-22T14:00:40.940Z,18.80
2023-04-22T14:05:34.309Z,18.80
2023-04-22T14:10:28.697Z,18.80
2023-04-22T14:15:22.264Z,18.90
2023-04-22T14:20:16.963Z,18.90
2023-04-22T14:25:11.180Z,18.80
2023-04-22T14:30:05.978Z,18.70
2023-04-22T14:34:59.390Z,18.50
2023-04-22T14:39:54.136Z,18.30
2023-04-22T14:44:47.512Z,18.10
2023-04-22T14:49:41.145Z,17.90
2023-04-22T14:54:34.825Z,17.70
2023-04-22T14:59:29.633Z,17.60
2023-04-22T15:04:23.359Z,17.70
2023-04-22T15:09:16.950Z,17.70
2023-04-22T15:14:10.265Z,17.60
2023-04-22T15:19:04.938Z,17.60
2023-04-22T15:23:58.314Z,17.50
2023-04-22T15:28:51.834Z,17.30
2023-04-22T15:33:45.125Z,17.10
2023-04-22T15:38:40.096Z,16.90
2023-04-22T15:43:33.824Z,16.70
2023-04-22T15:48:27.246Z,16.50
2023-04-22T15:53:20.588Z,16.40
2023-04-22T15:58:15.278Z,16.40
2023-04-22T16:03:08.938Z,16.30
2023-04-22T16:08:03.627Z,16.20
2023-04-22T16:12:57.079Z,16.10
2023-04-22T16:17:51.928Z,16.00
2023-04-22T16:22:45.347Z,15.90
2023-04-22T16:27:38.699Z,15.70
2023-04-22T16:32:32.126Z,15.40
2023-04-22T16:37:27.461Z,15.30
2023-04-22T16:42:20.821Z,15.30
2023-04-22T16:47:14.170Z,15.20
2023-04-22T16:52:07.778Z,15.10
2023-04-22T16:57:02.815Z,14.90
2023-04-22T17:01:56.245Z,14.90
2023-04-22T17:06:49.567Z,14.80
2023-04-22T17:11:43.072Z,14.90
2023-04-22T17:16:38.415Z,14.80
2023-04-22T17:21:31.744Z,14.80
2023-04-22T17:26:25.247Z,14.80
2023-04-22T17:31:19.312Z,14.70
2023-04-22T17:36:14.092Z,14.60
2023-04-22T17:41:07.756Z,14.60
2023-04-22T17:46:01.084Z,14.60
2023-04-22T17:50:54.759Z,14.60
2023-04-22T17:55:49.583Z,14.50
2023-04-22T18:00:42.993Z,14.50
2023-04-22T18:05:42.931Z,14.40
2023-04-22T18:10:36.353Z,14.40
2023-04-22T18:15:31.115Z,14.40
2023-04-22T18:20:24.640Z,14.30
2023-04-22T18:25:18.024Z,14.20
2023-04-22T18:30:12.279Z,14.20
2023-04-22T18:35:09.156Z,14.20
2023-04-22T18:40:02.701Z,14.20
2023-04-22T18:44:56.209Z,14.10
2023-04-22T18:49:49.684Z,14.10
2023-04-22T18:54:44.620Z,14.10
2023-04-22T18:59:37.994Z,14.10
2023-04-22T19:04:31.661Z,14.00
2023-04-22T19:09:25.256Z,13.90
2023-04-22T19:14:20.001Z,13.90
2023-04-22T19:19:13.299Z,13.90
2023-04-22T19:24:07.496Z,14.00
2023-04-22T19:29:03.823Z,13.90
2023-04-22T19:33:58.636Z,13.90
2023-04-22T19:38:54.323Z,13.80
2023-04-22T19:43:47.983Z,13.80
2023-04-22T19:48:49.072Z,13.70
2023-04-22T19:53:44.852Z,13.70
2023-04-22T19:58:41.029Z,13.60
2023-04-22T20:03:38.308Z,13.60
2023-04-22T20:08:33.044Z,13.60
2023-04-22T20:13:31.154Z,13.50
2023-04-22T20:18:27.001Z,13.40
2023-04-22T20:23:26.440Z,13.40
2023-04-22T20:28:22.699Z,13.30
2023-04-22T20:33:18.423Z,13.30
2023-04-22T20:38:19.398Z,13.30
2023-04-22T20:43:18.295Z,13.20
2023-04-22T20:48:11.725Z,13.20
2023-04-22T20:53:09.584Z,13.20
2023-04-22T20:58:03.595Z,13.20
2023-04-22T21:02:57.775Z,13.20
2023-04-22T21:07:53.698Z,13.20
2023-04-22T21:12:49.343Z,13.20
2023-04-22T21:17:51.683Z,13.20
2023-04-22T21:22:47.326Z,13.20
2023-04-22T21:27:41.349Z,13.20
2023-04-22T21:32:40.652Z,13.10
2023-04-22T21:37:34.424Z,13.00
2023-04-22T21:42:31.186Z,12.90
2023-04-22T21:47:24.566Z,12.70
2023-04-22T21:52:21.504Z,12.60
2023-04-22T21:57:17.872Z,12.60
2023-04-22T22:02:11.261Z,12.70
2023-04-22T22:07:04.661Z,12.70
2023-04-22T22:12:01.172Z,12.70
2023-04-22T22:16:57.482Z,12.70
2023-04-22T22:21:51.318Z,12.70
2023-04-22T22:26:45.465Z,12.60
2023-04-22T22:31:40.118Z,12.50
2023-04-22T22:36:33.736Z,12.50
2023-04-22T22:41:26.998Z,12.40
2023-04-22T22:46:20.747Z,12.40
2023-04-22T22:51:18.362Z,12.30
2023-04-22T22:56:12.093Z,12.30
2023-04-22T23:01:05.946Z,12.20
2023-04-22T23:05:59.635Z,12.30
2023-04-22T23:10:54.416Z,12.20
2023-04-22T23:15:47.822Z,12.20
2023-04-22T23:20:42.917Z,12.10
2023-04-22T23:25:37.181Z,12.10
2023-04-22T23:30:32.906Z,12.10
2023-04-22T23:35:27.518Z,12.20
2023-04-22T23:40:21.359Z,12.10
2023-04-22T23:45:15.565Z,12.10
2023-04-22T23:50:14.041Z,12.10
2023-04-22T23:55:10.331Z,12.20
